createdAt,value
2017-08-28T00:01:09.396Z,4.27
2017-08-28T00:03:36.912Z,3.67
2017-08-28T00:06:04.455Z,3.53
2017-08-28T00:08:31.983Z,3.63
2017-08-28T00:10:59.485Z,4.20
2017-08-28T00:13:27.031Z,3.80
2017-08-28T00:15:54.525Z,3.20
2017-08-28T00:18:22.032Z,3.90
2017-08-28T00:20:49.574Z,3.73
2017-08-28T00:23:17.084Z,3.13
2017-08-28T00:25:44.631Z,3.93
2017-08-28T00:28:12.130Z,4.47
2017-08-28T00:30:39.680Z,3.47
2017-08-28T00:33:07.234Z,3.50
2017-08-28T00:35:34.739Z,3.97
2017-08-28T00:38:02.239Z,3.50
2017-08-28T00:40:29.797Z,4.00
2017-08-28T00:42:57.304Z,4.27
2017-08-28T00:45:24.816Z,3.30
2017-08-28T00:47:52.377Z,3.57
2017-08-28T00:50:19.974Z,3.60
2017-08-28T00:52:47.632Z,3.70
2017-08-28T00:55:15.175Z,3.97
2017-08-28T00:57:42.979Z,3.97
2017-08-28T01:00:10.548Z,3.63
2017-08-28T01:02:38.090Z,3.60
2017-08-28T01:05:05.641Z,3.90
2017-08-28T01:07:33.152Z,3.97
2017-08-28T01:10:00.792Z,4.30
2017-08-28T01:12:28.320Z,3.60
2017-08-28T01:14:55.877Z,3.10
2017-08-28T01:17:23.437Z,3.87
2017-08-28T01:19:50.962Z,3.63
2017-08-28T01:22:18.584Z,2.97
2017-08-28T01:24:47.456Z,3.60
2017-08-28T01:27:15.003Z,3.97
2017-08-28T01:29:42.528Z,3.47
2017-08-28T01:32:10.233Z,3.27
2017-08-28T01:34:37.764Z,4.90
2017-08-28T01:37:05.319Z,3.40
2017-08-28T01:39:33.031Z,2.83
2017-08-28T01:42:00.577Z,3.20
2017-08-28T11:34:46.349Z,4.47
2017-08-28T11:37:14.969Z,4.70
2017-08-28T11:39:45.374Z,3.83
2017-08-28T11:42:22.604Z,3.87
2017-08-28T11:44:57.196Z,4.10
2017-08-28T11:47:27.916Z,4.00
2017-08-28T11:49:55.691Z,4.50
2017-08-28T11:52:34.600Z,4.03
2017-08-28T12:02:05.497Z,4.53
2017-08-28T12:11:52.458Z,4.80
2017-08-28T12:17:51.426Z,4.00
2017-08-28T12:24:16.905Z,5.20
2017-08-28T12:26:58.154Z,4.60
2017-08-28T12:29:37.932Z,4.87
2017-08-28T12:32:06.630Z,4.40
2017-08-28T12:34:49.243Z,4.80
2017-08-28T12:37:51.705Z,5.20
2017-08-28T12:40:23.665Z,4.50
2017-08-28T12:42:57.791Z,4.63
2017-08-28T12:45:28.246Z,4.43
2017-08-28T12:48:00.355Z,4.83
2017-08-28T12:54:25.724Z,5.00
2017-08-28T12:56:57.517Z,4.67
2017-08-28T13:03:08.679Z,4.50
2017-08-28T13:05:37.055Z,6.20
2017-08-28T13:08:19.044Z,4.20
2017-08-28T13:10:57.944Z,4.90
2017-08-28T13:13:28.051Z,4.50
2017-08-28T13:15:57.607Z,4.87
2017-08-28T13:18:26.603Z,4.93
2017-08-28T13:20:57.561Z,4.23
2017-08-28T13:23:25.346Z,4.47
2017-08-28T13:28:40.187Z,4.60
2017-08-28T13:31:08.128Z,4.60
2017-08-28T13:33:35.763Z,4.67
2017-08-28T13:36:04.103Z,5.30
2017-08-28T13:38:31.742Z,4.43
2017-08-28T13:41:02.301Z,6.03
2017-08-28T13:43:30.640Z,4.77
2017-08-28T13:45:58.289Z,4.60
2017-08-28T13:48:29.180Z,4.93
2017-08-28T13:50:57.044Z,5.70
2017-08-28T13:53:24.936Z,5.90
2017-08-28T13:55:52.585Z,5.13
2017-08-28T13:58:20.265Z,5.27
2017-08-28T14:00:47.805Z,5.60
2017-08-28T14:03:15.982Z,6.57
2017-08-28T14:05:43.855Z,5.90
2017-08-28T14:08:11.419Z,5.07
2017-08-28T14:10:42.954Z,5.53
2017-08-28T14:13:11.350Z,4.83
2017-08-28T14:15:39.235Z,6.43
2017-08-28T14:18:07.064Z,6.00
2017-08-28T14:20:35.608Z,6.13
2017-08-28T14:23:03.336Z,5.77
2017-08-28T14:25:31.019Z,7.20
2017-08-28T14:27:58.902Z,6.20
2017-08-28T14:30:26.511Z,5.70
2017-08-28T14:32:55.244Z,5.70
2017-08-28T14:35:23.474Z,5.80
2017-08-28T14:37:51.057Z,5.80
2017-08-28T14:40:18.913Z,6.50
2017-08-28T14:42:46.674Z,5.00
2017-08-28T14:45:14.446Z,6.00
2017-08-28T14:47:42.287Z,5.27
2017-08-28T14:50:10.019Z,5.93
2017-08-28T14:52:37.574Z,6.67
2017-08-28T14:55:05.213Z,6.80
2017-08-28T14:57:32.947Z,6.43
2017-08-28T15:00:01.265Z,6.13
2017-08-28T15:02:29.741Z,6.50
2017-08-28T15:04:57.830Z,6.47
2017-08-28T15:07:25.349Z,6.40
2017-08-28T15:09:52.972Z,6.40
2017-08-28T15:12:21.241Z,5.43
2017-08-28T15:14:51.291Z,6.10
2017-08-28T15:17:20.271Z,7.10
2017-08-28T15:19:47.979Z,5.83
2017-08-28T15:22:15.707Z,6.17
2017-08-28T15:24:43.277Z,6.20
2017-08-28T15:27:11.302Z,5.43
2017-08-28T15:29:39.539Z,4.90
2017-08-28T15:32:07.097Z,5.60
2017-08-28T15:34:34.740Z,4.93
2017-08-28T15:37:02.258Z,5.40
2017-08-28T15:39:29.941Z,5.17
2017-08-28T15:41:57.632Z,5.40
2017-08-28T15:44:25.226Z,5.97
2017-08-28T15:46:52.855Z,5.03
2017-08-28T15:49:20.578Z,6.30
2017-08-28T15:51:48.222Z,5.00
2017-08-28T15:54:15.880Z,6.40
2017-08-28T15:56:43.572Z,5.23
2017-08-28T15:59:11.297Z,5.73
2017-08-28T16:01:38.851Z,5.13
2017-08-28T16:04:06.353Z,5.27
2017-08-28T16:06:33.900Z,5.70
2017-08-28T16:09:01.485Z,4.70
2017-08-28T16:11:29.045Z,5.30
2017-08-28T16:13:56.575Z,5.50
2017-08-28T16:16:24.098Z,5.60
2017-08-28T16:18:52.285Z,5.30
2017-08-28T16:21:19.849Z,5.17
2017-08-28T16:23:47.515Z,5.57
2017-08-28T16:26:15.038Z,5.80
2017-08-28T16:28:42.712Z,5.80
2017-08-28T16:31:10.254Z,5.87
2017-08-28T16:33:37.778Z,5.20
2017-08-28T16:36:05.342Z,5.83
2017-08-28T16:38:32.866Z,6.17
2017-08-28T16:41:00.750Z,5.90
2017-08-28T16:43:28.301Z,5.60
2017-08-28T16:45:55.798Z,6.43
2017-08-28T16:48:23.333Z,6.27
2017-08-28T16:50:50.847Z,5.80
2017-08-28T16:53:18.487Z,5.87
2017-08-28T16:55:46.106Z,5.33
2017-08-28T16:58:13.709Z,6.20
2017-08-28T17:00:41.582Z,5.57
2017-08-28T17:03:09.168Z,5.80
2017-08-28T17:05:36.701Z,5.30
2017-08-28T17:08:04.209Z,5.20
2017-08-28T17:10:31.755Z,5.70
2017-08-28T17:12:59.488Z,6.00
2017-08-28T17:15:26.999Z,5.70
2017-08-28T17:17:54.745Z,6.33
2017-08-28T17:20:22.264Z,6.50
2017-08-28T17:22:49.885Z,5.80
2017-08-28T17:25:17.408Z,5.47
2017-08-28T17:27:44.962Z,5.80
2017-08-28T17:30:12.509Z,5.00
2017-08-28T17:32:40.015Z,6.20
2017-08-28T17:35:07.558Z,7.70
2017-08-28T17:37:35.125Z,6.53
2017-08-28T17:40:02.946Z,6.80
2017-08-28T17:42:30.509Z,5.80
2017-08-28T17:44:58.173Z,6.90
2017-08-28T17:47:25.693Z,7.03
2017-08-28T17:49:53.257Z,5.93
2017-08-28T17:52:20.774Z,6.50
2017-08-28T17:54:48.294Z,6.27
2017-08-28T17:57:15.869Z,5.83
2017-08-28T17:59:43.369Z,6.50
2017-08-28T18:02:10.892Z,6.37
2017-08-28T18:04:38.491Z,6.80
2017-08-28T18:07:06.037Z,6.57
2017-08-28T18:09:33.577Z,6.07
2017-08-28T18:12:01.198Z,6.77
2017-08-28T18:14:28.706Z,6.53
2017-08-28T18:16:58.805Z,6.30
2017-08-28T18:19:27.442Z,7.00
2017-08-28T18:21:58.912Z,6.40
2017-08-28T18:24:26.627Z,6.93
2017-08-28T18:26:56.153Z,7.40
2017-08-28T18:29:23.667Z,6.80
2017-08-28T18:31:51.245Z,6.10
2017-08-28T18:34:19.740Z,6.50
2017-08-28T18:36:48.106Z,6.20
2017-08-28T18:39:16.877Z,5.77
2017-08-28T18:41:44.737Z,6.70
2017-08-28T18:44:14.532Z,6.23
2017-08-28T18:46:42.181Z,6.23
2017-08-28T18:49:11.008Z,7.30
2017-08-28T18:51:38.620Z,7.17
2017-08-28T18:54:07.965Z,6.13
2017-08-28T18:56:37.921Z,6.43
2017-08-28T18:59:05.573Z,6.70
2017-08-28T19:01:33.079Z,7.53
2017-08-28T19:04:02.870Z,6.40
2017-08-28T19:06:30.459Z,6.00
2017-08-28T19:08:58.145Z,6.50
2017-08-28T19:11:25.662Z,6.67
2017-08-28T19:13:55.220Z,7.63
2017-08-28T19:16:22.866Z,6.20
2017-08-28T19:18:53.233Z,7.50
2017-08-28T19:21:20.849Z,5.70
2017-08-28T19:23:48.583Z,7.00
2017-08-28T19:26:19.242Z,6.23
2017-08-28T19:28:54.666Z,6.57
2017-08-28T19:31:22.222Z,6.70
2017-08-28T19:33:49.770Z,7.40
2017-08-28T19:36:17.561Z,6.90
2017-08-28T19:38:45.110Z,7.57
2017-08-28T19:41:12.616Z,6.27
2017-08-28T19:43:40.161Z,6.30
2017-08-28T19:46:07.726Z,8.13
2017-08-28T19:48:35.272Z,7.70
2017-08-28T19:51:02.920Z,7.50
2017-08-28T19:53:30.453Z,6.70
2017-08-28T19:55:57.969Z,7.40
2017-08-28T19:58:25.525Z,6.60
2017-08-28T20:00:53.060Z,6.63
2017-08-28T20:03:20.650Z,7.07
2017-08-28T20:05:48.157Z,7.47
2017-08-28T20:08:15.755Z,6.27
2017-08-28T20:10:43.324Z,7.10
2017-08-28T20:13:10.847Z,7.40
2017-08-28T20:15:38.414Z,7.00
2017-08-28T20:18:05.929Z,7.13
2017-08-28T20:20:33.450Z,6.80
2017-08-28T20:23:01.051Z,6.20
2017-08-28T20:25:28.553Z,7.13
2017-08-28T20:27:56.113Z,7.60
2017-08-28T20:30:23.668Z,6.30
2017-08-28T20:32:51.224Z,7.07
2017-08-28T20:35:18.877Z,6.87
2017-08-28T20:37:46.443Z,6.97
2017-08-28T20:40:13.981Z,6.63
2017-08-28T20:42:41.597Z,7.10
2017-08-28T20:45:09.215Z,5.80
2017-08-28T20:47:37.153Z,7.00
2017-08-28T20:50:04.801Z,7.50
2017-08-28T20:52:32.365Z,7.40
2017-08-28T20:54:59.865Z,7.03
2017-08-28T20:57:27.408Z,6.70
2017-08-28T20:59:54.924Z,6.33
2017-08-28T21:02:22.607Z,7.30
2017-08-28T21:04:50.123Z,6.50
2017-08-28T21:07:17.748Z,6.80
2017-08-28T21:09:45.254Z,6.90
2017-08-28T21:12:12.763Z,6.07
2017-08-28T21:14:40.346Z,7.50
2017-08-28T21:17:07.867Z,7.03
2017-08-28T21:19:35.448Z,6.50
2017-08-28T21:22:03.001Z,5.73
2017-08-28T21:24:30.561Z,6.43
2017-08-28T21:26:58.117Z,6.53
2017-08-28T21:29:25.669Z,6.70
2017-08-28T21:31:53.172Z,7.23
2017-08-28T21:34:20.753Z,7.40
2017-08-28T21:36:48.322Z,6.30
2017-08-28T21:39:15.852Z,6.60
2017-08-28T21:41:43.489Z,6.90
2017-08-28T21:44:11.054Z,6.60
2017-08-28T21:46:38.655Z,7.20
2017-08-28T21:49:06.243Z,6.17
2017-08-28T21:51:33.777Z,7.20
2017-08-28T21:54:01.327Z,5.80
2017-08-28T21:56:28.875Z,7.80
2017-08-28T21:58:56.391Z,5.80
2017-08-28T22:01:23.942Z,6.60
2017-08-28T22:03:51.472Z,6.03
2017-08-28T22:06:19.070Z,6.53
2017-08-28T22:08:46.576Z,7.57
2017-08-28T22:11:14.077Z,6.93
2017-08-28T22:13:41.921Z,6.50
2017-08-28T22:16:09.430Z,7.20
2017-08-28T22:18:37.020Z,6.67
2017-08-28T22:21:04.561Z,6.43
2017-08-28T22:23:32.147Z,5.47
2017-08-28T22:25:59.737Z,6.33
2017-08-28T22:28:27.242Z,6.73
2017-08-28T22:30:54.832Z,5.53
2017-08-28T22:33:22.362Z,6.77
2017-08-28T22:35:49.986Z,5.80
2017-08-28T22:38:17.610Z,6.60
2017-08-28T22:40:45.187Z,6.50
2017-08-28T22:43:12.866Z,6.67
2017-08-28T22:45:40.586Z,5.70
2017-08-28T22:48:08.205Z,6.57
2017-08-28T22:50:35.825Z,6.27
2017-08-28T22:53:03.355Z,6.07
2017-08-28T22:55:30.943Z,6.27
2017-08-28T22:57:58.493Z,7.27
2017-08-28T23:00:26.007Z,6.40
2017-08-28T23:02:53.586Z,5.93
2017-08-28T23:05:21.096Z,7.00
2017-08-28T23:07:48.902Z,5.80
2017-08-28T23:10:16.503Z,6.70
2017-08-28T23:12:44.045Z,7.13
2017-08-28T23:15:11.588Z,6.67
2017-08-28T23:17:39.106Z,7.03
2017-08-28T23:20:06.690Z,6.50
2017-08-28T23:22:34.356Z,6.60
2017-08-28T23:25:01.926Z,6.30
2017-08-28T23:27:29.491Z,6.63
2017-08-28T23:29:57.042Z,6.63
2017-08-28T23:32:24.588Z,6.00
2017-08-28T23:34:52.138Z,6.70
2017-08-28T23:37:19.712Z,6.50
2017-08-28T23:39:47.215Z,6.43
2017-08-28T23:42:14.770Z,7.00
2017-08-28T23:44:42.326Z,5.90
2017-08-28T23:47:09.837Z,6.40
2017-08-28T23:49:37.370Z,5.40
2017-08-28T23:52:04.902Z,6.10
2017-08-28T23:54:32.449Z,5.93
2017-08-28T23:57:00.006Z,6.33
2017-08-28T23:59:27.525Z,5.90
